Weather Top, Arizona (BMGR) Weather observations

Data are for 10 minute period ending at time listed.
 Day   Time   Solar   Ave.   Ave.  Ave.  Vector  Max.   Total    
  of    of     Rad.   Air    Rel.  Wind   Wind   Wind  Precip.   
Year   Day            Temp.  Hum.  Speed  Dir.   Gust            
2026   (MST)  Kw/m2    F      %     mph   deg.    mph    in.     
-----------------------------------------------------------------
 128   14:35   0.83   91.0    12    7.3     2    13.8    0.00 
 128   14:40   0.82   90.8    13    6.9   296    13.3    0.00 
 128   14:45   0.81   91.6    12    7.3   338    13.3    0.00 
 128   14:50   0.80   91.2    12    6.6    87    12.7    0.00 
 128   14:55   0.79   92.5    12    5.4    95     9.9    0.00 
 128   15:00   0.78   92.2    12    6.3    82    13.3    0.00 
 128   15:05   0.76   92.5    12    6.9    25    16.0    0.00 
 128   15:10   0.75   91.7    12    6.7    54    12.7    0.00 
 128   15:15   0.73   92.0    12    6.3    35    14.9    0.00 
 128   15:20   0.72   92.3    12    6.2    84    12.1    0.00 
 128   15:25   0.71   92.5    12    6.2    91    10.5    0.00 
 128   15:30   0.70   92.8    12    7.1   116    13.3    0.00 
 128   15:35   0.68   92.2    11    6.4    83    11.0    0.00 
 128   15:40   0.67   92.1    11    6.7    61    12.1    0.00 
 128   15:45   0.66   92.1    11    6.3   103    11.6    0.00 
 128   15:50   0.64   92.9    10    6.7    99     9.9    0.00 
 128   15:55   0.63   93.7    10    7.5    30    14.4    0.00 
 128   16:00   0.61   93.7    11    4.5    77     9.9    0.00 
 128   16:05   0.60   92.8    11    4.9    78    10.5    0.00 
 128   16:10   0.58   92.5    11    7.0    97    14.4    0.00 
 128   16:15   0.57   92.4    10    8.1   103    13.8    0.00 
 128   16:20   0.55   92.4    10    6.8    40    14.4    0.00 
 128   16:25   0.53   92.5    11    7.3    96    12.7    0.00 
 128   16:30   0.52   92.1    11    5.5   352    12.1    0.00 
 128   16:35   0.50   92.0    11    5.4    77    11.0    0.00 
 128   16:40   0.48   92.9    11    5.3   104     9.9    0.00 
 128   16:45   0.47   93.2    11    7.2   119    13.3    0.00 
 128   16:50   0.45   92.4    11    6.0    94    11.0    0.00 
 128   16:55   0.43   92.5    11    6.6   349    13.8    0.00 
 128   17:00   0.42   91.7    11    5.8    44    11.0    0.00 
 128   17:05   0.40   91.8    11    6.5    28    13.3    0.00 
 128   17:10   0.38   92.4    11    6.3    47    10.5    0.00 
 128   17:15   0.36   92.1    11    6.5    35    14.9    0.00 
 128   17:20   0.35   91.3    11    6.9    92    12.7    0.00 
 128   17:25   0.33   91.6    11    7.5     5    13.8    0.00 
 128   17:30   0.31   92.3    11    5.5    58    10.5    0.00 
 128   17:35   0.29   91.4    11    5.4   101    11.6    0.00 
 128   17:40   0.28   91.3    11    4.7    97     9.9    0.00 
 128   17:45   0.26   92.4    10    5.8    50    14.4    0.00 
 128   17:50   0.24   91.5    11    5.8    69    13.3    0.00 
 128   17:55   0.23   91.2    11    6.6    30    13.8    0.00 
 128   18:00   0.21   90.8    11    6.4   101    11.6    0.00 
 128   18:05   0.19   90.6    11    5.3    93    10.5    0.00 
 128   18:10   0.18   90.7    11    6.8    81    13.3    0.00 
 128   18:15   0.16   90.7    11    6.9    58    14.4    0.00 
 128   18:20   0.15   90.1    11    5.8    70    11.6    0.00 
 128   18:25   0.13   90.1    11    6.1    92    11.0    0.00 
 128   18:30   0.12   89.9    11    6.2    92    11.0    0.00 
 128   18:35   0.10   89.7    11    6.7   356    17.7    0.00 
 128   18:40   0.09   89.5    11    6.3    32    13.3    0.00 
 128   18:45   0.08   89.5    11    6.6   335    12.7    0.00 
 128   18:50   0.07   88.9    11    5.1   102    11.0    0.00 
 128   18:55   0.05   89.0    11    6.5   324    13.3    0.00 
 128   19:00   0.04   88.8    11    5.4    59    10.5    0.00 
 128   19:05   0.03   88.3    12    4.8    78    12.1    0.00 
 128   19:10   0.02   88.2    12    5.4    66     9.9    0.00 
 128   19:15   0.01   87.8    12    6.1   332    11.6    0.00 
 128   19:20   0.01   87.7    12    5.7   327    12.1    0.00 
 128   19:25   0.00   87.5    12    6.5   306    13.3    0.00 
 128   19:30   0.00   87.3    12    4.4    71     8.2    0.00 
 128   19:35   0.00   86.8    12    4.7   170     8.8    0.00 
 128   19:40   0.00   86.4    12    4.6   108     8.2    0.00 
 128   19:45   0.00   86.0    13    5.1    91     9.9    0.00 
 128   19:50   0.00   85.8    13    5.2    84     9.9    0.00 
 128   19:55   0.00   85.7    13    5.2    95     8.8    0.00 
 128   20:00   0.00   85.7    13    6.1    80    11.0    0.00 
 128   20:05   0.00   85.4    13    6.0    90    10.5    0.00 
 128   20:10   0.00   85.4    13    5.6    77     8.8    0.00 
 128   20:15   0.00   85.3    13    4.8    74     7.7    0.00 
 128   20:20   0.00   85.0    13    5.9    90    10.5    0.00 
 128   20:25   0.00   85.0    13    5.9    81    11.0    0.00 
 128   20:30   0.00   84.9    14    5.8    86    10.5    0.00 
 128   20:35   0.00   84.7    14    6.0    80    11.0    0.00 
 128   20:40   0.00   84.7    14    6.1    83    13.3    0.00 
 128   20:45   0.00   84.4    14    5.8    78    11.0    0.00 
 128   20:50   0.00   84.3    14    7.1    98    12.1    0.00 
 128   20:55   0.00   84.3    14    6.3    86    10.5    0.00 
 128   21:00   0.00   84.2    14    6.0    89    11.0    0.00 
 128   21:05   0.00   84.0    14    6.1    86    11.0    0.00 
 128   21:10   0.00   83.9    14    5.7    93    11.0    0.00 
 128   21:15   0.00   83.8    14    6.4    84    10.5    0.00 
 128   21:20   0.00   83.6    14    5.4    80     9.3    0.00 
 128   21:25   0.00   83.2    15    3.9    83     7.1    0.00 
 128   21:30   0.00   82.5    17    4.6    76     8.8    0.00 
 128   21:35   0.00   82.1    18    3.6    52     7.1    0.00 
 128   21:40   0.00   81.6    19    3.5    78     6.5    0.00 
 128   21:45   0.00   81.6    20    4.0    81     7.1    0.00 
 128   21:50   0.00   81.3    21    3.0   128     5.4    0.00 
 128   21:55   0.00   81.0    22    3.4    88     7.1    0.00 
 128   22:00   0.00   80.8    22    3.6    78     7.1    0.00 
 128   22:05   0.00   80.6    23    2.5   126     5.4    0.00 
 128   22:10   0.00   80.3    23    2.6   185     6.5    0.00 
 128   22:15   0.00   80.3    23    3.1   204     7.1    0.00 
 128   22:20   0.00   80.3    23    2.8   192     7.1    0.00 
 128   22:25   0.00   80.0    23    3.5   223     6.5    0.00 
 128   22:30   0.00   79.9    24    6.0   231     9.3    0.00 
 128   22:35   0.00   79.9    24    7.4   234    10.5    0.00 
 128   22:40   0.00   79.9    24    6.9   236    11.6    0.00 
 128   22:45   0.00   79.8    24    5.6   226     9.3    0.00 
 128   22:50   0.00   79.5    24    4.1   225     7.1    0.00 
 128   22:55   0.00   79.5    23    4.6   224     9.3    0.00 
 128   23:00   0.00   79.8    23    5.9   231     9.3    0.00 
 128   23:05   0.00   79.8    23    6.8   231     9.9    0.00 
 128   23:10   0.00   80.0    23    7.0   226     9.3    0.00 
 128   23:15   0.00   80.1    22    7.3   227     9.9    0.00 
 128   23:20   0.00   80.2    22    7.8   226    12.1    0.00 
 128   23:25   0.00   80.0    22    7.4   226    10.5    0.00 
 128   23:30   0.00   80.0    22    7.0   226    10.5    0.00 
 128   23:35   0.00   79.9    22    7.1   227    11.0    0.00 
 128   23:40   0.00   79.8    22    7.5   221    11.6    0.00 
 128   23:45   0.00   79.8    22    7.2   224    10.5    0.00 
 128   23:50   0.00   79.5    22    7.4   217    10.5    0.00 
 128   23:55   0.00   79.3    22    8.2   213    11.6    0.00 
 129    0:00   0.00   79.2    22    7.8   220    11.0    0.00 
 129    0:05   0.00   79.5    21    8.2   224    11.0    0.00 
 129    0:10   0.00   79.8    21    7.5   228    10.5    0.00 
 129    0:15   0.00   79.6    21    7.3   227    10.5    0.00 
 129    0:20   0.00   79.5    21    7.3   222    11.6    0.00 
 129    0:25   0.00   79.3    21    7.5   221    11.0    0.00 
 129    0:30   0.00   79.5    20    7.2   223    11.0    0.00 
 129    0:35   0.00   79.6    20    7.5   221    10.5    0.00 
 129    0:40   0.00   79.4    20    7.4   225    10.5    0.00 
 129    0:45   0.00   79.4    20    7.2   230    10.5    0.00 
 129    0:50   0.00   79.6    19    7.0   225     9.9    0.00 
 129    0:55   0.00   79.5    19    6.2   225     9.3    0.00 
 129    1:00   0.00   79.5    19    6.5   232    11.0    0.00 
 129    1:05   0.00   79.4    19    6.2   234     8.8    0.00 
 129    1:10   0.00   79.2    19    5.5   230     8.2    0.00 
 129    1:15   0.00   79.0    19    5.4   229     8.2    0.00 
 129    1:20   0.00   78.9    19    5.2   229     8.2    0.00 
 129    1:25   0.00   79.0    19    5.4   236     9.9    0.00 
 129    1:30   0.00   79.1    19    5.6   238     8.8    0.00 
 129    1:35   0.00   78.8    19    4.9   235     7.7    0.00 
 129    1:40   0.00   78.6    19    3.5   245     6.5    0.00 
 129    1:45   0.00   78.3    19    2.8   248     5.4    0.00 
 129    1:50   0.00   78.3    19    1.8   254     6.5    0.00 
 129    1:55   0.00   78.6    18    3.0   290     7.7    0.00 
 129    2:00   0.00   78.6    18    3.7   299     9.3    0.00 
 129    2:05   0.00   78.4    18    3.0    73     7.1    0.00 
 129    2:10   0.00   78.2    18    2.5    76     4.9    0.00 
 129    2:15   0.00   78.0    18    2.7     0     8.2    0.00 
 129    2:20   0.00   78.2    18    2.1   299     6.5    0.00 
 129    2:25   0.00   78.0    18    1.7   274     5.4    0.00 
 129    2:30   0.00   78.1    18    2.9   256     7.7    0.00 
 129    2:35   0.00   78.0    18    2.3   262     5.4    0.00 
 129    2:40   0.00   77.8    17    2.6   242     6.0    0.00 
 129    2:45   0.00   78.0    17    2.8   240     6.5    0.00 
 129    2:50   0.00   77.7    17    2.4   159     6.5    0.00 
 129    2:55   0.00   77.6    16    2.6    97     6.0    0.00 
 129    3:00   0.00   77.6    16    2.8    90     7.1    0.00 
 129    3:05   0.00   77.5    16    3.2   211     6.5    0.00 
 129    3:10   0.00   77.3    16    2.9   172     7.1    0.00 
 129    3:15   0.00   76.9    16    3.2   162     6.5    0.00 
 129    3:20   0.00   76.9    16    3.1   131     8.8    0.00 
 129    3:25   0.00   76.9    16    3.6   206     7.7    0.00 
 129    3:30   0.00   76.8    16    3.7   180     8.2    0.00 
 129    3:35   0.00   76.7    15    3.0   144     6.5    0.00 
 129    3:40   0.00   76.9    15    3.6   201     7.7    0.00 
 129    3:45   0.00   77.2    15    3.7    97     6.5    0.00 
 129    3:50   0.00   77.7    15    4.1    93     7.1    0.00 
 129    3:55   0.00   77.8    14    3.8    91     7.1    0.00 
 129    4:00   0.00   77.4    14    3.2   103     5.4    0.00 
 129    4:05   0.00   77.2    15    3.4   113     6.0    0.00 
 129    4:10   0.00   76.8    15    3.6   113     6.0    0.00 
 129    4:15   0.00   76.7    15    3.6   126     6.5    0.00 
 129    4:20   0.00   76.8    15    3.1   151     5.4    0.00 
 129    4:25   0.00   76.8    15    3.3   113     6.5    0.00 
 129    4:30   0.00   76.9    14    3.4   138     5.4    0.00 
 129    4:35   0.00   76.8    14    3.1   124     6.5    0.00 
 129    4:40   0.00   76.8    14    3.6   138     6.0    0.00 
 129    4:45   0.00   76.8    14    3.7    93     6.0    0.00 
 129    4:50   0.00   76.9    14    3.8    91     7.1    0.00 
 129    4:55   0.00   77.1    14    3.9   104     7.1    0.00 
 129    5:00   0.00   77.1    14    3.8    93     7.1    0.00 
 129    5:05   0.00   77.1    14    3.8   102     7.1    0.00 
 129    5:10   0.00   77.3    14    3.8    83     7.1    0.00 
 129    5:15   0.00   77.3    14    3.5    86     7.1    0.00 
 129    5:20   0.00   77.0    14    2.4    94     4.3    0.00 
 129    5:25   0.00   76.6    14    2.3   112     4.3    0.00 
 129    5:30   0.00   76.5    14    2.1   129     4.3    0.00 
 129    5:35   0.00   76.5    14    2.7   141     7.7    0.00 
 129    5:40   0.01   76.5    14    1.7   144     3.8    0.00 
 129    5:45   0.01   76.7    14    1.9   186     5.4    0.00 
 129    5:50   0.02   77.0    14    2.0   144     6.5    0.00 
 129    5:55   0.04   77.3    13    1.9   143     4.9    0.00 
 129    6:00   0.05   77.7    13    2.1   219     4.3    0.00 
 129    6:05   0.06   78.2    13    2.1   184     4.3    0.00 
 129    6:10   0.07   78.5    13    2.1   115     4.9    0.00 
 129    6:15   0.09   78.8    13    2.7    99     4.9    0.00 
 129    6:20   0.10   79.3    12    2.4    84     4.9    0.00 
 129    6:25   0.12   79.5    12    2.3    94     4.3    0.00 
 129    6:30   0.13   79.5    12    3.7   296     7.7    0.00 
 129    6:35   0.15   79.4    12    5.9   295     8.2    0.00 
 129    6:40   0.16   79.6    12    6.0   299     9.3    0.00 
 129    6:45   0.18   79.7    12    4.5   298     8.2    0.00 
 129    6:50   0.20   79.8    12    5.1   298     7.7    0.00 
 129    6:55   0.21   79.9    12    5.3   299     7.1    0.00 
 129    7:00   0.23   80.1    12    4.2   302     7.1    0.00 
 129    7:05   0.25   80.2    12    4.3   301     7.1    0.00 
 129    7:10   0.26   80.3    12    3.7   308     6.5    0.00 
 129    7:15   0.28   80.5    12    3.9   305     9.3    0.00 
 129    7:20   0.30   80.5    12    2.7   307     6.0    0.00 
 129    7:25   0.32   80.8    12    1.6   312     4.3    0.00 
 129    7:30   0.34   81.0    12    2.4   326     6.0    0.00 
 129    7:35   0.35   81.0    12    2.1   347     4.9    0.00 
 129    7:40   0.37   81.3    12    0.5   311     2.6    0.00 
 129    7:45   0.39   81.7    12    0.2   324     2.1    0.00 
 129    7:50   0.41   82.3    11    0.0   350     1.0    0.00 
 129    7:55   0.42   83.3    11    0.3   352     2.6    0.00 
 129    8:00   0.44   84.0    10    0.6   334     2.6    0.00 
 129    8:05   0.46   83.5    11    1.3     1     4.3    0.00 
 129    8:10   0.48   83.5    11    2.5     1     4.3    0.00 
 129    8:15   0.49   83.6    10    1.9    33     4.9    0.00 
 129    8:20   0.51   84.0    10    1.8    16     3.8    0.00 
 129    8:25   0.53   83.9    11    1.3    16     3.8    0.00 
 129    8:30   0.54   84.1    10    1.5   343     3.8    0.00 
 129    8:35   0.56   84.3    10    1.3     3     3.8    0.00 
 129    8:40   0.58   84.6    10    1.9    10     4.9    0.00 
 129    8:45   0.59   84.7    10    1.0     6     3.2    0.00 
 129    8:50   0.61   85.6    10    0.4    40     3.2    0.00 
 129    8:55   0.62   86.0    10    1.8    14     4.3    0.00 
 129    9:00   0.64   86.0    10    2.4    38     5.4    0.00 
 129    9:05   0.65   86.6    10    0.2   286     2.1    0.00 
 129    9:10   0.67   86.6    10    1.5   336     6.0    0.00 
 129    9:15   0.68   86.4    11    0.6   286     3.2    0.00 
 129    9:20   0.70   86.6    11    0.9   243     3.2    0.00 
 129    9:25   0.71   86.7    11    0.8   221     3.2    0.00 
 129    9:30   0.73   87.9    11    1.4   227     5.4    0.00 
 129    9:35   0.74   87.9    11    2.6    79     4.9    0.00 
 129    9:40   0.75   88.6    12    2.6    15     6.5    0.00 
 129    9:45   0.77   88.2    11    2.2   285     5.4    0.00 
 129    9:50   0.78   87.8    12    2.9     5     6.5    0.00 
 129    9:55   0.79   89.5    12    3.1    79     7.1    0.00 
 129   10:00   0.80   90.2    12    3.6   358     8.8    0.00 
 129   10:05   0.81   88.7    12    4.6    40     9.3    0.00 
 129   10:10   0.82   89.5    12    3.8    97     7.1    0.00 
 129   10:15   0.84   89.5    12    3.3    49     6.0    0.00 
 129   10:20   0.85   90.9    12    3.1   333     8.8    0.00 
 129   10:25   0.86   88.8    12    4.5   309     8.8    0.00 
 129   10:30   0.87   89.4    12    3.0    24     8.8    0.00 
 129   10:35   0.88   90.3    11    4.2     0     8.8    0.00 
 129   10:40   0.89   89.4    11    3.7   281     9.3    0.00 
 129   10:45   0.90   90.3    11    3.3   101     7.1    0.00 
 129   10:50   0.90   90.1    11    3.2   249     6.5    0.00 
 129   10:55   0.91   90.7    11    3.3   250     7.7    0.00 
 129   11:00   0.92   90.8    11    3.9   214     8.8    0.00 
 129   11:05   0.93   91.5    10    3.9    78     7.7    0.00 
 129   11:10   0.93   93.2    10    3.9    80     9.3    0.00 
 129   11:15   0.94   93.1     9    4.5   328     8.8    0.00 
 129   11:20   0.94   91.4    10    4.5   301     8.8    0.00 
 129   11:25   0.95   90.6    10    5.3   311    11.0    0.00 
 129   11:30   0.95   91.3    10    3.5   345     7.7    0.00 
 129   11:35   0.96   92.4    10    4.0   131     7.1    0.00 
 129   11:40   0.96   92.7    10    3.6   329     8.2    0.00 
 129   11:45   0.96   92.7    10    4.5    45     8.2    0.00 
 129   11:50   0.97   92.4    10    4.4   305     7.7    0.00 
 129   11:55   0.97   91.1    10    3.2   358     8.8    0.00 
 129   12:00   0.97   91.7    10    4.5     3    10.5    0.00 
 129   12:05   0.98   92.6    10    5.2   325    11.6    0.00 
 129   12:10   0.98   91.8    10    5.3   316    11.6    0.00 
 129   12:15   0.98   92.0    10    2.5   243     8.2    0.00 
 129   12:20   0.98   93.7    10    5.6   342    10.5    0.00 
 129   12:25   0.98   94.1     9    4.6    65     8.8    0.00 
 129   12:30   0.98   94.3     9    4.4    75     8.2    0.00 
 129   12:35   0.98   93.2    10    3.7   329     9.3    0.00 
 129   12:40   0.98   93.0    10    4.2   314    11.6    0.00 
 129   12:45   0.98   93.5    10    4.7   274    11.0    0.00 
 129   12:50   0.97   94.1     9    4.5    78     9.3    0.00 
 129   12:55   0.97   94.0     9    4.1   360     8.2    0.00 
 129   13:00   0.97   95.7     9    6.7   101    13.8    0.00 
 129   13:05   0.97   95.2     9    5.1   227     9.3    0.00 
 129   13:10   0.96   92.9    10    7.3   240    14.4    0.00 
 129   13:15   0.96   92.1    10    3.3   124     8.2    0.00 
 129   13:20   0.95   95.0     9    4.9    34     9.9    0.00 
 129   13:25   0.95   97.1     8    5.7    74    12.1    0.00 
 129   13:30   0.94   95.6     9    7.3   235    12.1    0.00 
 129   13:35   0.94   95.6     9    4.7   200    11.0    0.00 
 129   13:40   0.93   95.8     9    8.4   227    17.7    0.00 
 129   13:45   0.92   93.4     9    6.3   197    16.6    0.00 
 129   13:50   0.92   95.0     9    4.8    89    11.6    0.00 
 129   13:55   0.91   94.7     9    3.7   355     8.2    0.00 
 129   14:00   0.90   95.7     8    5.9   114    10.5    0.00 
 129   14:05   0.90   96.5     8    5.9   121    12.1    0.00 
 129   14:10   0.89   96.7     8    6.7    20    14.4    0.00 
 129   14:15   0.88   95.8     8    5.7    64    12.1    0.00 
 129   14:20   0.87   96.5     8    6.2   101    15.5    0.00 
 129   14:25   0.86   95.5     8    6.2   321    11.6    0.00 
 129   14:30   0.85   95.3     8    4.8   329    11.0    0.00 

Return to Weather Top graphs page.


Western Regional Climate Center,wrcc@dri.edu